• Join FlightAware (Why Join?)
  • Login
  • US Flag 
04:30AM EDT


 

Airport Tracker/Info


-or-


 

Live Flight TrackerFlight Track Log ✈ AAL532 ✈ 02-May-2013 ✈ KORD - KDCA

Flight Track Log - Related Links

Times and Time Zones

All times are in EDT time to prevent confusion due to time zone crossing. See the AAL532 flight status page for this flight to view local times or setup timezone preferences in your user account.

Time Position Orientation Groundspeed Altitude Reporting Facility
EDT Latitude Longitude Course Direction KTS MPH feet Rate Location/Type
11:44PM 42.0167 -87.9000 85° East 241 277 3,700  Level Chicago TRACON
11:44PM 42.0333 -87.8167 75° East 262 302 6,900 3,420 Climbing Chicago TRACON
11:45PM 41.9574 -87.4552 96° East  Level FlightAware Approximate
11:46PM 41.9458 -87.3076 95° East  Level FlightAware Approximate
11:47PM 41.9352 -87.1599 95° East  Level FlightAware Approximate
11:47PM 42.0269 -87.5881 92° East 300 345 14,500  Level Chicago Center
11:48PM 41.9333 -87.0116 90° East  Level FlightAware Approximate
11:48PM 42.0039 -87.4347 101° East 343 395 17,800  Level Chicago Center
11:49PM 41.9394 -86.8707 85° East  Level FlightAware Approximate
11:49PM 41.9822 -87.2992 102° East 368 423 20,300  Level Chicago Center
11:50PM 41.9586 -87.1464 102° East 409 471 22,200 2,100 Climbing Chicago Center
11:51PM 41.9392 -86.9850 99° East 434 499 24,600 2,220 Climbing Chicago Center
11:52PM 41.9211 -86.8194 98° East 447 514 26,700 1,920 Climbing Chicago Center
11:53PM 41.9033 -86.6647 99° East 465 535 28,500 2,340 Climbing Chicago Center
11:54PM 41.8836 -86.4956 99° East 462 532 31,500 2,160 Climbing Chicago Center
11:55PM 41.8625 -86.3325 100° East 448 516 33,000 720 Climbing Chicago Center
11:56PM 41.8239 -86.1764 108° East 442 509 33,000 180 Level Chicago Center
11:57PM 41.7761 -85.9906 109° East 439 505 33,400 1,320 Climbing Chicago Center
11:58PM 41.7367 -85.8372 109° East 438 504 35,700 1,740 Climbing Chicago Center
11:59PM 41.6983 -85.6875 109° East 428 493 37,000 600 Climbing Chicago Center
12:00AM 41.6611 -85.5453 109° East 434 499 37,000  Level Chicago Center
12:01AM 41.6194 -85.3914 110° East 440 506 37,000  Level Chicago Center
12:02AM 41.5808 -85.2364 108° East 449 517 37,000  Level Chicago Center
12:03AM 41.5400 -85.0819 109° East 447 514 37,000  Level Chicago Center
12:04AM 41.4981 -84.9275 110° East 443 510 37,000  Level Chicago Center
12:05AM 41.4339 -84.7528 116° Southeast 441 507 37,000  Level Chicago Center
12:06AM 41.3772 -84.6111 118° Southeast 437 503 37,000  Level Chicago Center
12:07AM 41.3200 -84.4681 118° Southeast 439 505 37,000  Level Chicago Center
12:08AM 41.2622 -84.3258 118° Southeast 438 504 37,000  Level Chicago Center
12:09AM 41.2044 -84.1828 118° Southeast 440 506 37,000  Level Chicago Center
12:09AM 41.1778 -84.1172 118° Southeast 436 502 37,000  Level Cleveland Center
12:10AM 41.1194 -83.9764 119° Southeast 441 507 37,000  Level Cleveland Center
12:11AM 41.0650 -83.8386 118° Southeast 441 507 37,000 -60 Level Cleveland Center
12:12AM 41.0006 -83.6867 119° Southeast 430 495 36,900 -60 Descending Cleveland Center
12:13AM 40.9439 -83.5467 118° Southeast 430 495 36,900  Level Cleveland Center
12:14AM 40.8847 -83.4092 120° Southeast 430 495 37,000  Climbing Cleveland Center
12:17AM 40.7575 -83.1072 119° Southeast 441 507 37,000  Level Indianapolis Center
12:17AM 40.7067 -82.9853 119° Southeast 442 509 37,000  Level Cleveland Center
12:18AM 40.6472 -82.8436 119° Southeast 442 509 37,000  Level Cleveland Center
12:19AM 40.5831 -82.7075 122° Southeast 447 514 37,000  Level Cleveland Center
12:20AM 40.5761 -82.6831 111° Southeast 441 507 37,000  Level Indianapolis Center
12:21AM 40.5158 -82.5411 119° Southeast 444 511 37,000  Level Indianapolis Center
12:22AM 40.4553 -82.3997 119° Southeast 442 509 37,000  Level Indianapolis Center
12:23AM 40.3933 -82.2578 120° Southeast 445 512 37,000  Level Indianapolis Center
12:24AM 40.3436 -82.1097 114° Southeast 452 520 37,000  Level Indianapolis Center
12:25AM 40.2869 -81.9647 117° Southeast 449 517 37,000  Level Indianapolis Center
12:26AM 40.2194 -81.8111 120° Southeast 451 519 37,000  Level Indianapolis Center
12:27AM 40.1494 -81.6583 121° Southeast 448 516 37,000  Level Indianapolis Center
12:28AM 40.0872 -81.5192 120° Southeast 442 509 37,000  Level Indianapolis Center
12:29AM 40.0236 -81.3800 121° Southeast 445 512 37,000  Level Indianapolis Center
12:30AM 39.9592 -81.2425 121° Southeast 442 509 37,000  Level Indianapolis Center
12:31AM 39.9006 -81.1122 120° Southeast 440 506 37,000  Level Indianapolis Center
12:32AM 39.8369 -80.9742 121° Southeast 442 509 37,000  Level Indianapolis Center
12:33AM 39.7722 -80.8364 121° Southeast 444 511 37,000  Level Indianapolis Center
12:34AM 39.7078 -80.6981 121° Southeast 444 511 37,000  Level Indianapolis Center
12:35AM 39.6433 -80.5597 121° Southeast 446 513 37,000  Level Indianapolis Center
12:36AM 39.5781 -80.4231 122° Southeast 444 511 37,000  Level Indianapolis Center
12:37AM 39.5064 -80.2639 120° Southeast 446 513 37,000  Level Washington Center
12:38AM 39.4467 -80.1389 122° Southeast 446 513 37,000 -900 Level Washington Center
12:39AM 39.3808 -80.0033 122° Southeast 446 513 35,300 -2,640 Descending Washington Center
12:40AM 39.3150 -79.8625 121° Southeast 451 519 31,900 -2,160 Descending Washington Center
12:41AM 39.2831 -79.7022 104° East 446 513 31,000 -480 Descending Washington Center
12:42AM 39.2697 -79.5408 96° East 446 513 31,000 -360 Level Washington Center
12:43AM 39.2561 -79.3764 96° East 452 520 30,300 -1,140 Descending Washington Center
12:44AM 39.2419 -79.2283 97° East 457 526 28,800 -2,040 Descending Washington Center
12:45AM 39.2250 -79.0319 96° East 462 532 26,300 -2,640 Descending Washington Center
12:46AM 39.2106 -78.8706 97° East 461 531 23,600 -2,820 Descending Washington Center
12:47AM 39.1981 -78.7197 96° East 440 506 20,800 -2,880 Descending Washington Center
12:48AM 39.1850 -78.5747 97° East 426 490 18,000 -2,460 Descending Washington Center
12:49AM 39.1694 -78.4375 98° East 400 460 15,900 -2,040 Descending Washington Center
12:50AM 39.1517 -78.3136 100° East 374 430 14,000 -1,500 Descending Washington Center
12:51AM 39.1333 -78.1925 101° East 356 410 13,000 -840 Descending Washington Center
12:52AM 39.1153 -78.0689 101° East 350 403 12,400 -600 Descending Washington Center
12:53AM 39.0967 -77.9478 101° East 350 403 11,900 -540 Descending Washington Center
12:54AM 39.0819 -77.8431 100° East 342 394 11,400 -600 Descending Washington Center
12:55AM 39.0614 -77.7194 102° East 324 373 10,700 -960 Descending Washington Center
12:56AM 39.0483 -77.6336 101° East 294 338 9,500 -1,200 Descending Washington Center
12:57AM 39.0333 -77.5833 111° Southeast 277 319 8,900 -1,620 Descending Potomac TRACON
12:58AM 39.0333 -77.5000 90° East 251 289 7,100 -1,800 Descending Potomac TRACON
12:59AM 39.0167 -77.4167 104° East 236 272 5,300 -1,080 Descending Potomac TRACON
01:01AM 38.9159 -77.1844 142° Southeast  Level Estimated
01:02AM 38.9667 -77.1667 North 181 208 2,200  Level Potomac TRACON
01:03AM 38.9333 -77.1167 131° Southeast 187 215 1,400 -600 Descending Potomac TRACON
01:04AM 38.9000 -77.0833 142° Southeast 153 176 1,100 -480 Descending Potomac TRACON
01:05AM 38.8833 -77.0500 123° Southeast 122 140 500 -420 Descending Potomac TRACON
01:06AM 38.8667 -77.0333 142° Southeast 123 142 300 -240 Descending Potomac TRACON
01:08AM 38.8500 -77.0333 North  Level FlightAware Approximate